createdAt,value
2022-07-29T00:04:14.125Z,101079.02
2022-07-29T00:09:17.590Z,101075.55
2022-07-29T00:14:20.880Z,101077.69
2022-07-29T00:19:24.216Z,101079.96
2022-07-29T00:24:28.778Z,101080.79
2022-07-29T00:29:34.182Z,101077.56
2022-07-29T00:34:56.659Z,101080.98
2022-07-29T00:40:00.072Z,101077.10
2022-07-29T00:45:03.856Z,101078.77
2022-07-29T00:50:09.791Z,101080.45
2022-07-29T00:55:16.058Z,101078.41
2022-07-29T01:00:23.240Z,101077.95
2022-07-29T01:05:48.458Z,101080.45
2022-07-29T01:10:53.727Z,101081.38
2022-07-29T01:16:04.873Z,101081.17
2022-07-29T01:21:52.586Z,101085.02
2022-07-29T01:27:10.179Z,101090.98
2022-07-29T01:32:27.982Z,101087.20
2022-07-29T01:37:51.675Z,101086.02
2022-07-29T01:42:58.743Z,101086.80
2022-07-29T01:48:08.097Z,101083.88
2022-07-29T01:53:14.224Z,101086.08
2022-07-29T01:58:20.574Z,101087.06
2022-07-29T02:03:24.962Z,101085.96
2022-07-29T02:08:30.607Z,101089.10
2022-07-29T02:13:36.972Z,101095.44
2022-07-29T02:18:43.246Z,101094.83
2022-07-29T02:23:51.355Z,101092.36
2022-07-29T02:28:58.683Z,101089.46
2022-07-29T02:34:04.942Z,101089.27
2022-07-29T02:39:10.821Z,101094.20
2022-07-29T02:44:23.051Z,101097.12
2022-07-29T02:49:40.229Z,101097.10
2022-07-29T02:54:48.665Z,101096.52
2022-07-29T02:59:55.877Z,101098.44
2022-07-29T03:05:01.088Z,101101.27
2022-07-29T03:10:07.696Z,101105.84
2022-07-29T03:15:17.622Z,101102.63
2022-07-29T03:20:22.050Z,101102.23
2022-07-29T03:25:28.516Z,101101.30
2022-07-29T03:30:32.188Z,101102.63
2022-07-29T03:35:35.458Z,101096.29
2022-07-29T03:40:45.088Z,101094.10
2022-07-29T03:45:54.742Z,101095.58
2022-07-29T03:50:58.123Z,101101.17
2022-07-29T03:56:03.780Z,101098.39
2022-07-29T04:01:07.474Z,101097.67
2022-07-29T04:06:10.663Z,101094.43
2022-07-29T04:11:14.155Z,101090.49
2022-07-29T04:16:17.461Z,101092.17
2022-07-29T04:21:20.854Z,101095.12
2022-07-29T04:26:24.402Z,101099.79
2022-07-29T04:31:27.881Z,101103.02
2022-07-29T04:36:31.205Z,101109.77
2022-07-29T04:41:34.857Z,101111.19
2022-07-29T04:46:38.507Z,101117.34
2022-07-29T04:51:41.698Z,101118.97
2022-07-29T04:56:45.298Z,101113.23
2022-07-29T05:01:48.613Z,101111.64
2022-07-29T05:06:51.893Z,101112.30
2022-07-29T05:11:55.144Z,101110.69
2022-07-29T05:16:58.411Z,101113.73
2022-07-29T05:22:01.733Z,101112.59
2022-07-29T05:27:05.138Z,101104.27
2022-07-29T05:32:08.732Z,101104.48
2022-07-29T05:37:12.243Z,101106.55
2022-07-29T05:42:15.664Z,101107.48
2022-07-29T05:47:19.093Z,101107.02
2022-07-29T05:52:22.978Z,101112.48
2022-07-29T05:57:26.700Z,101110.57
2022-07-29T06:02:29.938Z,101100.25
2022-07-29T06:07:33.951Z,101097.92
2022-07-29T06:12:39.751Z,101101.30
2022-07-29T06:18:00.095Z,101102.56
2022-07-29T06:23:05.823Z,101105.83
2022-07-29T06:28:09.114Z,101103.31
2022-07-29T06:33:18.068Z,101100.17
2022-07-29T06:38:30.747Z,101105.29
2022-07-29T06:43:50.152Z,101104.52
2022-07-29T06:48:55.531Z,101106.85
2022-07-29T06:54:02.243Z,101101.54
2022-07-29T06:59:16.842Z,101102.89
2022-07-29T07:04:20.811Z,101090.94
2022-07-29T07:09:24.736Z,101098.06
2022-07-29T07:14:43.771Z,101098.38
2022-07-29T07:19:47.030Z,101089.96
2022-07-29T07:24:50.278Z,101086.73
2022-07-29T07:29:53.552Z,101086.17
2022-07-29T07:34:58.227Z,101092.27
2022-07-29T07:40:03.336Z,101091.44
2022-07-29T07:45:16.609Z,101095.00
2022-07-29T07:50:20.055Z,101088.29
2022-07-29T07:55:23.413Z,101085.86
2022-07-29T08:00:26.756Z,101092.17
2022-07-29T08:05:30.039Z,101094.05
2022-07-29T08:10:52.355Z,101098.38
2022-07-29T08:15:59.286Z,101094.21
2022-07-29T08:21:02.843Z,101091.77
2022-07-29T08:26:11.552Z,101091.14
2022-07-29T08:31:15.712Z,101092.09
2022-07-29T08:36:19.325Z,101097.27
2022-07-29T08:41:23.247Z,101099.34
2022-07-29T08:46:26.938Z,101093.96
2022-07-29T08:51:33.080Z,101097.80
2022-07-29T08:56:36.903Z,101093.36
2022-07-29T09:01:42.520Z,101090.16
2022-07-29T09:06:52.760Z,101086.50
2022-07-29T09:11:56.384Z,101079.86
2022-07-29T09:17:01.324Z,101082.27
2022-07-29T09:22:07.218Z,101082.90
2022-07-29T09:27:22.490Z,101070.33
2022-07-29T09:32:26.110Z,101067.77
2022-07-29T09:37:30.426Z,101070.77
2022-07-29T09:42:35.128Z,101067.78
2022-07-29T09:47:51.907Z,101066.84
2022-07-29T09:52:55.149Z,101068.10
2022-07-29T09:58:18.836Z,101064.23
2022-07-29T10:03:54.103Z,101063.02
2022-07-29T10:09:11.859Z,101050.95
2022-07-29T10:14:16.479Z,101048.66
2022-07-29T10:19:20.069Z,101046.86
2022-07-29T10:24:23.446Z,101051.27
2022-07-29T10:29:28.107Z,101043.41
2022-07-29T10:35:04.229Z,101046.65
2022-07-29T10:40:48.493Z,101048.80
2022-07-29T10:45:58.677Z,101046.80
2022-07-29T10:51:03.914Z,101046.27
2022-07-29T10:56:32.380Z,101041.55
2022-07-29T11:01:37.034Z,101041.31
2022-07-29T11:06:59.823Z,101035.79
2022-07-29T11:12:39.764Z,101027.38
2022-07-29T11:17:55.049Z,101025.23
2022-07-29T11:23:26.735Z,101024.44
2022-07-29T11:28:31.419Z,101018.41
2022-07-29T11:33:55.842Z,101006.79
2022-07-29T11:39:37.079Z,100997.17
2022-07-29T11:44:58.556Z,100996.52
2022-07-29T11:50:11.209Z,100990.39
2022-07-29T11:55:17.345Z,100984.75
2022-07-29T12:00:34.856Z,100980.55
2022-07-29T12:05:48.145Z,100983.38
2022-07-29T12:10:52.904Z,100979.33
2022-07-29T12:16:00.086Z,100972.27
2022-07-29T12:21:06.857Z,100981.02
2022-07-29T12:26:10.843Z,100982.52
2022-07-29T12:31:43.848Z,100981.28
2022-07-29T12:36:39.925Z,100985.69
2022-07-29T12:41:43.725Z,100981.95
2022-07-29T12:46:49.820Z,100975.75
2022-07-29T12:51:53.083Z,100973.59
2022-07-29T12:57:01.700Z,100967.85
2022-07-29T13:02:05.837Z,100963.27
2022-07-29T13:07:10.471Z,100960.44
2022-07-29T13:12:15.502Z,100958.89
2022-07-29T13:17:24.164Z,100956.94
2022-07-29T13:22:27.842Z,100957.17
2022-07-29T13:27:33.838Z,100958.27
2022-07-29T13:32:39.193Z,100952.60
2022-07-29T13:37:42.702Z,100951.84
2022-07-29T13:42:46.641Z,100946.39
2022-07-29T13:47:50.641Z,100949.67
2022-07-29T13:52:54.429Z,100938.91
2022-07-29T13:57:58.043Z,100935.25
2022-07-29T14:03:01.752Z,100933.23
2022-07-29T14:08:05.514Z,100927.54
2022-07-29T14:13:24.579Z,100929.30
2022-07-29T14:18:29.237Z,100931.95
2022-07-29T14:23:32.613Z,100935.05
2022-07-29T14:28:39.011Z,100928.45
2022-07-29T14:33:46.249Z,100928.45
2022-07-29T14:38:54.119Z,100921.77
2022-07-29T14:43:57.624Z,100921.92
2022-07-29T14:49:04.070Z,100921.61
2022-07-29T14:54:10.818Z,100912.11
2022-07-29T14:59:16.701Z,100910.64
2022-07-29T15:04:20.263Z,100910.76
2022-07-29T15:09:25.537Z,100913.45
2022-07-29T15:14:29.200Z,100905.74
2022-07-29T15:19:32.863Z,100904.01
2022-07-29T15:24:36.413Z,100898.58
2022-07-29T15:29:40.495Z,100905.27
2022-07-29T15:34:46.486Z,100902.02
2022-07-29T15:39:55.024Z,100898.21
2022-07-29T15:45:10.933Z,100893.56
2022-07-29T15:50:20.468Z,100887.66
2022-07-29T15:55:24.659Z,100885.39
2022-07-29T16:00:28.652Z,100877.02
2022-07-29T16:05:32.881Z,100866.41
2022-07-29T16:10:39.368Z,100861.16
2022-07-29T16:16:01.997Z,100857.84
2022-07-29T16:21:07.783Z,100847.46
2022-07-29T16:26:14.378Z,100847.00
2022-07-29T16:31:18.893Z,100844.94
2022-07-29T16:36:22.311Z,100847.08
2022-07-29T16:41:29.852Z,100847.06
2022-07-29T16:46:37.863Z,100847.04
2022-07-29T16:51:44.525Z,100847.63
2022-07-29T16:56:47.939Z,100848.90
2022-07-29T17:01:51.235Z,100847.66
2022-07-29T17:06:57.595Z,100846.73
2022-07-29T17:12:01.368Z,100843.42
2022-07-29T17:17:05.729Z,100847.66
2022-07-29T17:22:21.911Z,100845.63
2022-07-29T17:27:26.970Z,100844.06
2022-07-29T17:32:36.973Z,100847.84
2022-07-29T17:37:40.425Z,100849.73
2022-07-29T17:42:43.983Z,100853.77
2022-07-29T17:47:47.371Z,100850.04
2022-07-29T17:52:50.806Z,100850.52
2022-07-29T17:57:57.192Z,100851.75
2022-07-29T18:03:03.545Z,100856.72
2022-07-29T18:08:10.291Z,100863.35
2022-07-29T18:13:14.110Z,100863.98
2022-07-29T18:18:19.484Z,100870.61
2022-07-29T18:23:22.851Z,100871.81
2022-07-29T18:28:26.100Z,100870.52
2022-07-29T18:33:29.810Z,100876.47
2022-07-29T18:38:35.743Z,100873.59
2022-07-29T18:43:40.410Z,100876.84
2022-07-29T18:48:44.943Z,100875.91
2022-07-29T18:53:52.813Z,100874.97
2022-07-29T18:58:56.779Z,100875.59
2022-07-29T19:04:00.816Z,100876.20
2022-07-29T19:09:04.780Z,100878.55
2022-07-29T19:14:08.410Z,100879.32
2022-07-29T19:19:12.195Z,100888.17
2022-07-29T19:24:15.876Z,100886.63
2022-07-29T19:29:19.578Z,100889.43
2022-07-29T19:34:22.806Z,100896.96
2022-07-29T19:39:34.705Z,100891.34
2022-07-29T19:44:39.074Z,100892.56
2022-07-29T19:49:42.587Z,40356.24
2022-07-29T19:54:45.780Z,-1.00
2022-07-29T19:59:49.025Z,-1.00
2022-07-29T20:04:52.928Z,-1.00
2022-07-29T20:09:56.588Z,-1.00
2022-07-29T20:15:00.133Z,-1.00
2022-07-29T20:20:05.020Z,-1.00
2022-07-29T20:25:12.246Z,-1.00
2022-07-29T20:30:16.779Z,-1.00
2022-07-29T20:35:24.710Z,-1.00
2022-07-29T20:40:30.007Z,-1.00
2022-07-29T20:45:34.621Z,-1.00
2022-07-29T20:50:37.788Z,-1.00
2022-07-29T20:55:41.197Z,-1.00
2022-07-29T21:00:44.460Z,-1.00
2022-07-29T21:05:50.815Z,-1.00
2022-07-29T21:10:54.304Z,-1.00
2022-07-29T21:16:04.307Z,-1.00
2022-07-29T21:21:10.291Z,-1.00
2022-07-29T21:26:14.066Z,-1.00
2022-07-29T21:31:18.745Z,-1.00
2022-07-29T21:36:47.251Z,-1.00
2022-07-29T21:41:46.456Z,-1.00
2022-07-29T21:46:50.124Z,-1.00
2022-07-29T21:51:53.310Z,-1.00
2022-07-29T21:56:56.699Z,-1.00
2022-07-29T22:02:01.222Z,-1.00
2022-07-29T22:07:05.168Z,-1.00
2022-07-29T22:12:08.482Z,-1.00
2022-07-29T22:17:11.772Z,-1.00
2022-07-29T22:22:15.171Z,-1.00
2022-07-29T22:27:18.500Z,-1.00
2022-07-29T22:32:21.679Z,-1.00
2022-07-29T22:37:24.995Z,-1.00
2022-07-29T22:42:28.276Z,-1.00
2022-07-29T22:47:38.992Z,-1.00
2022-07-29T22:52:50.062Z,-1.00
2022-07-29T22:57:53.291Z,-1.00
2022-07-29T23:02:56.581Z,-1.00
2022-07-29T23:08:00.160Z,-1.00
2022-07-29T23:13:03.405Z,-1.00
2022-07-29T23:18:08.148Z,-1.00
2022-07-29T23:23:11.748Z,-1.00
2022-07-29T23:28:14.998Z,-1.00
2022-07-29T23:33:19.952Z,-1.00
2022-07-29T23:38:26.307Z,-1.00
2022-07-29T23:43:29.587Z,-1.00
2022-07-29T23:48:32.793Z,-1.00
2022-07-29T23:53:38.116Z,-1.00
2022-07-29T23:58:56.838Z,-1.00
